Nyk Orpheus — 7JDN — position and weather

sailwx.info

Track history (hours):
 
Tides and Currents Weather Stations Pressure Air Temp Water Temp Dewpoint Dewpoint Depression Visibility Wind Speed Wind Dir Waves Ship Positions

Nyk Orpheus

Last reported at 2017-May-24 09:13 UTC. Time now 2017-May-24 10:02 UTC.
Position N 35°34' E 018°03'.

Length 336 m; draft 13.1 m.

Type: Ship (hazmat cat A). MMSI: 432657000.

Date/timePositionNaut miles runAvg speedWind from/ knotsBaromVisibWave heightAir tempDewpointWater temp
2017-May-24 09:13N 35°34' E 018°03'419.0
2017-May-24 09:00N 35°33' E 018°08'5518.9
2017-May-24 06:07N 35°17' E 019°12'218.7
2017-May-24 06:00N 35°16' E 019°14'1418.7
2017-May-24 05:14N 35°12' E 019°31'518.4
2017-May-24 04:59N 35°11' E 019°36'2518.1
2017-May-24 03:37N 35°03' E 020°05'217.8
2017-May-24 03:29N 35°03' E 020°08'918.0
2017-May-24 03:00N 35°00' E 020°18'918.3
2017-May-24 02:30N 34°58' E 020°29'918.3
2017-May-24 02:00N 34°55' E 020°40'29018.1
2017-May-23 10:00N 33°24' E 026°12'   340 / 151025.410.8 24.021.020.0
2017-May-19 09:00N 19°18' E 039°42'   270 / 151020.310.8 30.028.731.0
Track history (hours):
 
Tides and Currents Weather Stations Pressure Air Temp Water Temp Dewpoint Dewpoint Depression Visibility Wind Speed Wind Dir Waves Ship Positions

Nyk Orpheus

Last reported at 2017-May-24 09:13 UTC. Time now 2017-May-24 10:02 UTC.
Position N 35°34' E 018°03'.

Length 336 m; draft 13.1 m.

Type: Ship (hazmat cat A). MMSI: 432657000.

Date/timePositionNaut miles runAvg speedWind from/ knotsBaromVisibWave heightAir tempDewpointWater temp
2017-May-24 09:13N 35°34' E 018°03'419.0
2017-May-24 09:00N 35°33' E 018°08'5518.9
2017-May-24 06:07N 35°17' E 019°12'218.7
2017-May-24 06:00N 35°16' E 019°14'1418.7
2017-May-24 05:14N 35°12' E 019°31'518.4
2017-May-24 04:59N 35°11' E 019°36'2518.1
2017-May-24 03:37N 35°03' E 020°05'217.8
2017-May-24 03:29N 35°03' E 020°08'918.0
2017-May-24 03:00N 35°00' E 020°18'918.3
2017-May-24 02:30N 34°58' E 020°29'918.3
2017-May-24 02:00N 34°55' E 020°40'29018.1
2017-May-23 10:00N 33°24' E 026°12'   340 / 151025.410.8 24.021.020.0
2017-May-19 09:00N 19°18' E 039°42'   270 / 151020.310.8 30.028.731.0

Dump ship's entire track history